Portada
METAR-TAF:

METAR-TAF

Aeroports :

Batam, Indonèsia

latitud: 01-07-15N, longitud: 104-07-07E, altitud: 38 m

Observació

L'informe es va fer fa 24 minuts, a les 03:30 UTC
Vent 2 kt del Nord/Nord-Oest
Temperatura 28°C
Humitat 84%
Pressió 1012 hPa
Visibilitat 10 km o més
Escasses núvols a una alçada de 1400 ft

METAR: WIDD 210330Z 33002KT 9999 FEW014 28/25 Q1012

Hora: 10:54 (03:54 UTC)

Pronòstic

L'informe es va fer fa 4 hores i 54 minuts, a les 23:00 UTC
Pronòstic vàlid del 21 a les 00 UTC al 21 a les 24 UTC
Vent 5 kt del Nord
Visibilitat: 5000 m
Núvols disperses a una alçada de 1400 ft
pluja
Evolucionant progressivament
l' 21 a les 02 UTC al 21 a les 04 UTC
Visibilitat: 9000 m

TAF: WIDD 202300Z 2100/2124 35005KT 5000 -RA SCT014 BECMG 2102/2104 9000

Observacions i pronòstics meteorològics de més de 4000 aeroports (METAR i TAF).

Les estacions disponibles són els punts grocs i vermells al mapa.

Posi el ratolí al punt desitjat per veure el nom de l'estació.

Feu clic per veure les observacions i els pronòstics meteorològics.

Per canviar el mapa: feu clic els botons verds amb una creu de color negre per apropar; al botó verd amb un guió per allunyar la imatge; o en les fletxes verdes per a mapes adjacents.


METAR-TAF: